createdAt,value
2018-06-18T00:00:27.409Z,7.73
2018-06-18T00:02:55.633Z,7.40
2018-06-18T00:05:23.847Z,6.90
2018-06-18T00:07:52.059Z,7.90
2018-06-18T00:10:20.400Z,6.97
2018-06-18T00:12:48.756Z,8.00
2018-06-18T00:15:16.964Z,7.47
2018-06-18T00:17:45.191Z,7.23
2018-06-18T00:20:13.589Z,7.17
2018-06-18T00:22:41.769Z,6.83
2018-06-18T00:25:10.042Z,7.20
2018-06-18T00:27:38.262Z,8.17
2018-06-18T00:30:06.489Z,7.33
2018-06-18T00:32:34.810Z,7.30
2018-06-18T00:35:03.080Z,7.93
2018-06-18T00:37:31.344Z,8.17
2018-06-18T00:39:59.689Z,8.47
2018-06-18T00:42:27.925Z,7.17
2018-06-18T00:44:56.172Z,6.10
2018-06-18T00:47:24.142Z,6.77
2018-06-18T00:49:52.406Z,5.50
2018-06-18T00:52:20.595Z,5.97
2018-06-18T00:54:48.812Z,5.27
2018-06-18T00:57:17.088Z,6.47
2018-06-18T00:59:45.317Z,5.77
2018-06-18T01:02:13.536Z,5.33
2018-06-18T01:04:48.148Z,5.80
2018-06-18T01:07:16.401Z,5.50
2018-06-18T01:09:44.667Z,5.90
2018-06-18T01:12:12.880Z,5.77
2018-06-18T01:14:41.187Z,5.33
2018-06-18T01:17:09.390Z,5.40
2018-06-18T01:19:37.639Z,6.37
2018-06-18T01:22:06.134Z,6.10
2018-06-18T01:24:44.521Z,5.13
2018-06-18T01:27:12.745Z,6.20
2018-06-18T01:29:40.962Z,5.60
2018-06-18T01:32:09.184Z,5.40
2018-06-18T01:34:37.396Z,4.93
2018-06-18T01:37:05.624Z,5.37
2018-06-18T01:39:33.833Z,5.13
2018-06-18T01:42:02.046Z,4.80
2018-06-18T01:44:30.293Z,5.47
2018-06-18T01:46:58.528Z,5.10
2018-06-18T01:49:26.990Z,5.43
2018-06-18T01:51:55.226Z,5.40
2018-06-18T01:54:23.466Z,4.87
2018-06-18T01:56:51.717Z,4.70
2018-06-18T01:59:19.940Z,4.87
2018-06-18T02:01:48.212Z,3.67
2018-06-18T02:04:16.440Z,3.47
2018-06-18T02:06:44.677Z,2.87
2018-06-18T02:09:13.351Z,4.23
2018-06-18T02:11:41.612Z,3.93
2018-06-18T02:14:10.727Z,3.90
2018-06-18T02:16:38.927Z,3.60
2018-06-18T02:19:07.507Z,4.83
2018-06-18T02:21:35.748Z,4.97
2018-06-18T02:24:03.997Z,4.83
2018-06-18T02:26:32.235Z,5.27
2018-06-18T02:29:06.616Z,4.97
2018-06-18T02:31:40.866Z,5.60
2018-06-18T02:35:11.727Z,5.20
2018-06-18T02:37:45.453Z,4.50
2018-06-18T02:40:19.115Z,5.07
2018-06-18T02:42:47.436Z,4.80
2018-06-18T02:45:15.683Z,4.70
2018-06-18T02:47:43.896Z,4.43
2018-06-18T02:50:12.344Z,4.50
2018-06-18T02:52:40.615Z,4.17
2018-06-18T02:55:08.852Z,4.13
2018-06-18T02:57:37.124Z,4.63
2018-06-18T03:00:05.577Z,4.07
2018-06-18T03:02:33.806Z,4.57
2018-06-18T03:05:02.089Z,3.90
2018-06-18T03:07:30.356Z,5.30
2018-06-18T03:09:58.589Z,5.43
2018-06-18T03:12:26.984Z,5.00
2018-06-18T03:14:55.231Z,4.90
2018-06-18T03:17:23.480Z,6.10
2018-06-18T03:19:57.149Z,4.20
2018-06-18T03:22:30.644Z,4.60
2018-06-18T03:25:04.334Z,4.57
2018-06-18T03:27:37.997Z,3.97
2018-06-18T03:30:06.459Z,5.20
2018-06-18T03:32:34.712Z,5.30
2018-06-18T03:35:03.007Z,4.93
2018-06-18T03:37:31.228Z,5.40
2018-06-18T03:39:59.463Z,5.60
2018-06-18T03:42:27.695Z,5.60
2018-06-18T03:45:02.557Z,5.70
2018-06-18T03:47:30.916Z,5.73
2018-06-18T03:49:59.135Z,5.83
2018-06-18T03:52:27.323Z,5.30
2018-06-18T03:54:58.656Z,5.17
2018-06-18T03:57:26.896Z,6.63
2018-06-18T03:59:55.377Z,6.60
2018-06-18T04:02:36.623Z,7.60
2018-06-18T04:05:10.599Z,8.03
2018-06-18T04:07:44.244Z,7.80
2018-06-18T04:10:18.000Z,6.60
2018-06-18T04:12:46.260Z,6.57
2018-06-18T04:15:14.544Z,5.90
2018-06-18T04:17:42.809Z,6.30
2018-06-18T04:20:11.059Z,6.97
2018-06-18T04:22:39.334Z,5.70
2018-06-18T04:25:07.625Z,5.93
2018-06-18T04:27:35.892Z,7.03
2018-06-18T04:30:04.465Z,6.10
2018-06-18T04:32:32.692Z,6.60
2018-06-18T04:35:02.920Z,6.70
2018-06-18T04:37:31.251Z,6.00
2018-06-18T04:39:59.466Z,5.60
2018-06-18T04:42:33.031Z,5.30
2018-06-18T04:45:06.569Z,5.20
2018-06-18T04:47:40.289Z,6.60
2018-06-18T04:50:13.824Z,6.00
2018-06-18T04:52:42.111Z,6.00
2018-06-18T04:55:10.359Z,6.37
2018-06-18T04:57:38.662Z,6.00
2018-06-18T05:00:12.251Z,5.83
2018-06-18T05:02:40.519Z,6.20
2018-06-18T05:05:08.859Z,6.30
2018-06-18T05:07:37.057Z,6.87
2018-06-18T05:10:09.640Z,6.40
2018-06-18T05:12:37.899Z,5.70
2018-06-18T05:15:06.157Z,6.30
2018-06-18T05:17:34.434Z,6.60
2018-06-18T05:20:02.686Z,6.10
2018-06-18T05:22:30.964Z,5.90
2018-06-18T05:24:59.265Z,6.40
2018-06-18T05:27:30.751Z,7.07
2018-06-18T05:30:01.769Z,5.87
2018-06-18T05:32:30.040Z,7.17
2018-06-18T05:34:58.318Z,7.10
2018-06-18T05:37:35.096Z,6.20
2018-06-18T05:40:03.345Z,6.20
2018-06-18T05:42:31.575Z,7.50
2018-06-18T05:44:59.908Z,7.10
2018-06-18T05:47:28.144Z,6.50
2018-06-18T05:49:56.421Z,7.90
2018-06-18T05:52:24.695Z,7.33
2018-06-18T05:54:53.452Z,5.57
2018-06-18T05:57:21.464Z,6.07
2018-06-18T05:59:49.927Z,7.20
2018-06-18T06:02:18.199Z,4.97
2018-06-18T06:04:46.476Z,5.20
2018-06-18T06:07:14.699Z,4.93
2018-06-18T06:09:42.983Z,6.10
2018-06-18T06:12:11.256Z,5.00
2018-06-18T06:14:39.748Z,4.10
2018-06-18T06:17:08.012Z,5.17
2018-06-18T06:19:36.436Z,4.87
2018-06-18T06:22:04.725Z,4.30
2018-06-18T06:24:33.991Z,4.67
2018-06-18T06:27:02.227Z,5.00
2018-06-18T06:29:30.703Z,3.17
2018-06-18T06:31:58.964Z,3.67
2018-06-18T06:34:27.260Z,3.80
2018-06-18T06:36:56.500Z,4.03
2018-06-18T06:39:24.731Z,4.40
2018-06-18T06:42:01.252Z,3.23
2018-06-18T06:44:29.479Z,3.70
2018-06-18T06:46:57.746Z,4.03
2018-06-18T06:49:25.989Z,4.00
2018-06-18T06:51:54.358Z,3.77
2018-06-18T06:54:22.643Z,3.83
2018-06-18T06:56:50.603Z,4.03
2018-06-18T06:59:18.896Z,2.90
2018-06-18T07:01:47.173Z,4.37
2018-06-18T07:04:15.445Z,3.30
2018-06-18T07:06:43.686Z,3.07
2018-06-18T07:09:12.708Z,3.20
2018-06-18T07:11:40.703Z,3.57
2018-06-18T07:14:09.115Z,3.40
2018-06-18T07:16:37.375Z,2.93
2018-06-18T07:19:05.599Z,3.10
2018-06-18T07:21:33.849Z,3.10
2018-06-18T07:24:02.103Z,3.37
2018-06-18T07:26:30.339Z,3.10
2018-06-18T07:28:58.654Z,3.20
2018-06-18T07:31:26.875Z,4.00
2018-06-18T07:33:55.102Z,3.03
2018-06-18T07:36:23.400Z,3.03
2018-06-18T07:38:51.639Z,3.73
2018-06-18T07:41:19.893Z,3.57
2018-06-18T07:43:48.160Z,3.07
2018-06-18T07:46:16.385Z,3.57
2018-06-18T07:48:44.632Z,3.80
2018-06-18T07:51:12.885Z,3.13
2018-06-18T07:53:41.900Z,3.20
2018-06-18T07:56:10.950Z,3.40
2018-06-18T07:58:39.413Z,3.73
2018-06-18T08:01:07.659Z,3.90
2018-06-18T08:03:36.027Z,3.90
2018-06-18T08:06:04.495Z,4.00
2018-06-18T08:08:32.768Z,3.80
2018-06-18T08:11:00.759Z,3.27
2018-06-18T08:13:29.237Z,3.40
2018-06-18T08:15:57.516Z,2.57
2018-06-18T08:18:25.799Z,3.43
2018-06-18T08:20:54.094Z,3.27
2018-06-18T08:23:22.372Z,3.40
2018-06-18T08:25:50.623Z,2.70
2018-06-18T08:28:19.081Z,2.70
2018-06-18T08:30:47.375Z,3.37
2018-06-18T08:33:15.673Z,3.23
2018-06-18T08:35:43.976Z,3.10
2018-06-18T08:38:12.261Z,2.87
2018-06-18T08:40:40.507Z,2.50
2018-06-18T08:43:08.891Z,3.20
2018-06-18T08:45:37.156Z,2.80
2018-06-18T08:48:05.517Z,2.90
2018-06-18T08:50:39.107Z,2.87
2018-06-18T08:53:12.660Z,4.20
2018-06-18T08:55:46.276Z,3.00
2018-06-18T08:58:19.873Z,3.40
2018-06-18T09:00:53.413Z,2.93
2018-06-18T09:03:22.672Z,2.80
2018-06-18T09:05:54.827Z,2.20
2018-06-18T09:08:23.356Z,3.10
2018-06-18T09:10:52.328Z,2.30
2018-06-18T09:13:20.689Z,2.90
2018-06-18T09:15:48.952Z,3.60
2018-06-18T09:18:17.194Z,2.43
2018-06-18T09:20:45.497Z,3.03
2018-06-18T09:23:13.784Z,2.57
2018-06-18T09:25:57.296Z,2.70
2018-06-18T09:28:26.279Z,2.67
2018-06-18T09:30:54.956Z,3.03
2018-06-18T09:33:23.192Z,3.50
2018-06-18T09:35:52.041Z,3.30
2018-06-18T09:38:20.685Z,2.90
2018-06-18T09:40:48.986Z,2.47
2018-06-18T09:43:17.428Z,2.77
2018-06-18T09:45:45.667Z,1.80
2018-06-18T09:48:13.944Z,3.30
2018-06-18T09:50:47.579Z,2.60
2018-06-18T09:53:21.144Z,2.73
2018-06-18T09:55:57.342Z,2.80
2018-06-18T09:58:31.843Z,2.63
2018-06-18T10:01:08.473Z,2.37
2018-06-18T10:03:36.760Z,3.10
2018-06-18T10:06:06.298Z,2.93
2018-06-18T10:08:34.588Z,3.00
2018-06-18T10:11:02.880Z,3.40
2018-06-18T10:13:31.148Z,3.33
2018-06-18T10:15:59.868Z,2.93
2018-06-18T10:18:28.172Z,3.40
2018-06-18T10:20:56.608Z,3.40
2018-06-18T10:23:24.884Z,4.30
2018-06-18T10:25:53.296Z,4.07
2018-06-18T10:28:21.584Z,4.57
2018-06-18T10:30:49.876Z,5.53
2018-06-18T10:33:23.312Z,3.77
2018-06-18T10:35:57.043Z,3.20
2018-06-18T10:38:31.172Z,3.00
2018-06-18T10:41:04.948Z,3.17
2018-06-18T10:43:34.508Z,3.63
2018-06-18T10:46:02.773Z,3.23
2018-06-18T10:48:31.080Z,3.87
2018-06-18T10:50:59.336Z,3.60
2018-06-18T10:53:27.355Z,3.20
2018-06-18T10:55:55.648Z,3.40
2018-06-18T10:58:24.130Z,3.30
2018-06-18T11:01:00.740Z,3.67
2018-06-18T11:03:29.141Z,2.57
2018-06-18T11:06:02.673Z,3.00
2018-06-18T11:08:30.899Z,4.10
2018-06-18T11:10:59.200Z,3.80
2018-06-18T11:13:27.851Z,5.23
2018-06-18T11:15:56.152Z,4.80
2018-06-18T11:18:29.835Z,6.07
2018-06-18T11:21:03.557Z,5.43
2018-06-18T11:23:37.211Z,5.87
2018-06-18T11:26:10.819Z,6.70
2018-06-18T11:28:39.064Z,6.60
2018-06-18T11:31:07.560Z,5.87
2018-06-18T11:33:35.804Z,5.90
2018-06-18T11:36:04.107Z,6.00
2018-06-18T11:38:32.389Z,5.83
2018-06-18T11:41:00.836Z,5.33
2018-06-18T11:43:29.143Z,5.70
2018-06-18T11:45:57.377Z,6.30
2018-06-18T11:48:25.636Z,7.33
2018-06-18T11:50:53.945Z,6.87
2018-06-18T11:53:22.233Z,5.33
2018-06-18T11:55:50.535Z,6.27
2018-06-18T11:58:24.295Z,7.13
2018-06-18T12:00:57.909Z,7.70
2018-06-18T12:03:31.529Z,7.80
2018-06-18T12:06:05.215Z,7.07
2018-06-18T12:08:38.895Z,9.00
2018-06-18T12:11:07.200Z,7.57
2018-06-18T12:13:35.460Z,9.60
2018-06-18T12:16:03.735Z,9.20
2018-06-18T12:18:32.062Z,7.93
2018-06-18T12:21:00.341Z,9.80
2018-06-18T12:23:28.593Z,8.17
2018-06-18T12:25:56.844Z,7.30
2018-06-18T12:28:25.127Z,9.33
2018-06-18T12:30:53.528Z,14.40
2018-06-18T12:33:21.799Z,11.17
2018-06-18T12:35:50.044Z,13.73
2018-06-18T12:38:18.312Z,13.87
2018-06-18T12:40:46.795Z,13.20
2018-06-18T12:43:19.081Z,14.13
2018-06-18T12:45:54.485Z,14.63
2018-06-18T12:48:28.045Z,7.83
2018-06-18T12:51:01.774Z,12.90
2018-06-18T12:53:35.376Z,10.10
2018-06-18T12:56:09.228Z,12.53
2018-06-18T12:58:37.525Z,9.63
2018-06-18T13:01:05.529Z,9.37
2018-06-18T13:03:33.805Z,6.47
2018-06-18T13:06:02.124Z,9.90
2018-06-18T13:08:30.390Z,9.43
2018-06-18T13:10:58.829Z,10.23
2018-06-18T13:13:27.123Z,8.23
2018-06-18T13:15:55.387Z,8.40
2018-06-18T13:18:23.674Z,7.23
2018-06-18T13:20:51.925Z,7.83
2018-06-18T13:23:20.219Z,7.90
2018-06-18T13:25:48.493Z,8.40
2018-06-18T13:28:17.069Z,8.17
2018-06-18T13:30:45.936Z,8.30
2018-06-18T13:33:14.204Z,9.33
2018-06-18T13:35:42.665Z,9.00
2018-06-18T13:38:16.274Z,10.03
2018-06-18T13:40:49.912Z,8.93
2018-06-18T13:43:23.455Z,10.97
2018-06-18T13:45:57.197Z,11.47
2018-06-18T13:48:31.239Z,12.10
2018-06-18T13:50:59.780Z,11.30
2018-06-18T13:53:28.050Z,10.27
2018-06-18T13:55:56.316Z,9.57
2018-06-18T13:58:24.595Z,9.90
2018-06-18T14:00:52.890Z,10.97
2018-06-18T14:03:21.189Z,10.93
2018-06-18T14:05:49.506Z,10.30
2018-06-18T14:08:17.822Z,10.80
2018-06-18T14:10:46.163Z,11.53
2018-06-18T14:13:14.432Z,10.03
2018-06-18T14:15:42.709Z,10.10
2018-06-18T14:18:10.984Z,11.37
2018-06-18T14:20:39.247Z,10.97
2018-06-18T14:23:07.552Z,8.50
2018-06-18T14:25:35.833Z,10.83
2018-06-18T14:28:04.115Z,10.40
2018-06-18T14:30:37.891Z,11.07
2018-06-18T14:33:11.588Z,11.23
2018-06-18T14:35:45.163Z,12.20
2018-06-18T14:38:18.722Z,10.13
2018-06-18T14:40:47.018Z,10.10
2018-06-18T14:43:15.276Z,8.00
2018-06-18T14:45:43.595Z,8.13
2018-06-18T14:48:11.914Z,8.33
2018-06-18T14:50:40.282Z,7.90
2018-06-18T14:53:08.602Z,5.67
2018-06-18T14:55:36.906Z,8.03
2018-06-18T14:58:05.186Z,6.50
2018-06-18T15:00:34.495Z,8.53
2018-06-18T15:03:02.770Z,9.60
2018-06-18T15:05:35.027Z,10.17
2018-06-18T15:08:03.524Z,10.50
2018-06-18T15:10:37.214Z,10.03
2018-06-18T15:13:07.130Z,8.50
2018-06-18T15:15:40.887Z,9.40
2018-06-18T15:18:09.151Z,8.47
2018-06-18T15:20:37.475Z,8.70
2018-06-18T15:23:06.989Z,8.80
2018-06-18T15:25:38.886Z,9.10
2018-06-18T15:28:07.172Z,7.90
2018-06-18T15:30:36.539Z,8.23
2018-06-18T15:33:04.821Z,8.40
2018-06-18T15:35:33.125Z,7.37
2018-06-18T15:38:01.392Z,8.07
2018-06-18T15:40:29.689Z,6.97
2018-06-18T15:42:58.000Z,7.20
2018-06-18T15:45:26.309Z,5.67
2018-06-18T15:47:54.626Z,5.20
2018-06-18T15:50:23.458Z,5.10
2018-06-18T15:52:51.683Z,5.07
2018-06-18T15:55:19.916Z,5.87
2018-06-18T15:57:48.184Z,5.80
2018-06-18T16:00:16.472Z,5.03
2018-06-18T16:02:45.282Z,6.33
2018-06-18T16:05:13.539Z,7.00
2018-06-18T16:07:41.788Z,7.70
2018-06-18T16:10:10.084Z,9.13
2018-06-18T16:12:38.340Z,6.50
2018-06-18T16:15:06.743Z,7.40
2018-06-18T16:17:35.019Z,7.50
2018-06-18T16:20:03.543Z,7.10
2018-06-18T16:22:31.786Z,8.43
2018-06-18T16:25:00.072Z,7.83
2018-06-18T16:27:28.352Z,8.80
2018-06-18T16:29:56.605Z,7.93
2018-06-18T16:32:24.874Z,8.37
2018-06-18T16:34:53.161Z,7.90
2018-06-18T16:37:21.424Z,7.60
2018-06-18T16:39:49.645Z,7.30
2018-06-18T16:42:17.940Z,8.27
2018-06-18T16:44:46.191Z,7.87
2018-06-18T16:47:14.454Z,8.90
2018-06-18T16:49:42.835Z,7.90
2018-06-18T16:52:11.100Z,7.90
2018-06-18T16:54:39.783Z,6.77
2018-06-18T16:57:08.507Z,6.43
2018-06-18T16:59:37.096Z,5.37
2018-06-18T17:02:05.722Z,5.50
2018-06-18T17:04:34.123Z,5.30
2018-06-18T17:07:02.390Z,6.00
2018-06-18T17:09:30.744Z,5.03
2018-06-18T17:11:59.787Z,6.07
2018-06-18T17:14:28.261Z,5.20
2018-06-18T17:16:56.811Z,6.50
2018-06-18T17:19:25.418Z,6.10
2018-06-18T17:21:53.929Z,4.63
2018-06-18T17:24:22.232Z,6.40
2018-06-18T17:26:51.302Z,4.67
2018-06-18T17:29:19.724Z,4.93
2018-06-18T17:31:48.010Z,4.70
2018-06-18T17:34:16.429Z,4.70
2018-06-18T17:36:44.739Z,4.50
2018-06-18T17:39:13.947Z,7.00
2018-06-18T17:41:42.553Z,5.07
2018-06-18T17:44:10.898Z,5.83
2018-06-18T17:46:39.525Z,7.30
2018-06-18T17:49:08.743Z,4.13
2018-06-18T17:51:37.074Z,6.30
2018-06-18T17:54:05.364Z,6.40
2018-06-18T17:56:33.745Z,7.40
2018-06-18T17:59:02.134Z,6.87
2018-06-18T18:01:30.452Z,7.17
2018-06-18T18:03:58.745Z,6.90
2018-06-18T18:06:27.088Z,7.53
2018-06-18T18:08:55.103Z,4.90
2018-06-18T18:11:23.431Z,7.40
2018-06-18T18:13:51.740Z,5.53
2018-06-18T18:16:19.960Z,7.97
2018-06-18T18:18:48.015Z,7.50
2018-06-18T18:21:16.919Z,5.90
2018-06-18T18:23:45.256Z,8.63
2018-06-18T18:26:13.516Z,8.47
2018-06-18T18:28:41.574Z,8.13
2018-06-18T18:31:10.351Z,8.43
2018-06-18T18:33:38.723Z,7.90
2018-06-18T18:36:07.240Z,8.63
2018-06-18T18:38:36.012Z,10.17
2018-06-18T18:41:04.457Z,9.00
2018-06-18T18:43:33.216Z,8.80
2018-06-18T18:46:02.112Z,9.40
2018-06-18T18:48:30.900Z,8.60
2018-06-18T18:50:59.724Z,9.40
2018-06-18T18:53:28.469Z,10.13
2018-06-18T18:56:08.276Z,9.73
2018-06-18T18:59:45.290Z,9.30
2018-06-18T19:02:13.462Z,9.40
2018-06-18T19:04:45.416Z,9.50
2018-06-18T19:07:14.268Z,9.83
2018-06-18T19:09:50.188Z,9.43
2018-06-18T19:12:19.018Z,9.87
2018-06-18T19:14:47.295Z,10.07
2018-06-18T19:17:15.783Z,10.23
2018-06-18T19:19:57.377Z,10.17
2018-06-18T19:22:25.849Z,9.50
2018-06-18T19:24:54.176Z,10.63
2018-06-18T19:27:23.016Z,10.13
2018-06-18T19:29:52.157Z,11.23
2018-06-18T19:32:22.167Z,10.33
2018-06-18T19:34:50.520Z,11.10
2018-06-18T19:37:18.930Z,9.60
2018-06-18T19:39:48.510Z,10.80
2018-06-18T19:42:16.961Z,10.10
2018-06-18T19:44:46.084Z,10.60
2018-06-18T19:47:23.162Z,9.87
2018-06-18T19:49:51.978Z,10.33
2018-06-18T19:52:20.326Z,9.43
2018-06-18T19:54:52.799Z,9.47
2018-06-18T19:57:21.096Z,10.00
2018-06-18T19:59:49.355Z,9.00
2018-06-18T20:02:19.291Z,8.53
2018-06-18T20:04:47.548Z,7.60
2018-06-18T20:07:18.127Z,8.33
2018-06-18T20:09:46.760Z,7.33
2018-06-18T20:12:16.220Z,6.80
2018-06-18T20:14:44.751Z,8.07
2018-06-18T20:17:13.297Z,7.20
2018-06-18T20:19:44.086Z,6.77
2018-06-18T20:22:12.459Z,6.40
2018-06-18T20:24:42.495Z,7.83
2018-06-18T20:27:11.263Z,7.60
2018-06-18T20:29:41.092Z,7.07
2018-06-18T20:32:09.368Z,7.37
2018-06-18T20:34:37.635Z,6.33
2018-06-18T20:37:05.920Z,6.13
2018-06-18T20:39:34.226Z,5.70
2018-06-18T20:42:02.575Z,6.97
2018-06-18T20:44:30.991Z,5.73
2018-06-18T20:46:59.278Z,6.30
2018-06-18T20:49:27.544Z,5.87
2018-06-18T20:51:55.784Z,4.83
2018-06-18T20:54:24.033Z,6.40
2018-06-18T20:56:52.287Z,6.13
2018-06-18T20:59:20.567Z,5.13
2018-06-18T21:01:49.472Z,6.23
2018-06-18T21:04:17.728Z,5.20
2018-06-18T21:06:45.965Z,5.77
2018-06-18T21:09:14.373Z,5.10
2018-06-18T21:11:42.624Z,6.27
2018-06-18T21:14:11.412Z,6.67
2018-06-18T21:16:40.636Z,5.00
2018-06-18T21:19:09.045Z,6.20
2018-06-18T21:21:37.216Z,6.43
2018-06-18T21:24:05.701Z,7.03
2018-06-18T21:26:34.198Z,6.93
2018-06-18T21:29:02.459Z,6.87
2018-06-18T21:31:30.753Z,7.63
2018-06-18T21:33:59.005Z,8.30
2018-06-18T21:36:27.256Z,8.07
2018-06-18T21:38:55.544Z,8.70
2018-06-18T21:41:23.823Z,8.47
2018-06-18T21:43:52.583Z,9.10
2018-06-18T21:46:20.587Z,9.80
2018-06-18T21:48:48.870Z,8.83
2018-06-18T21:51:17.128Z,9.60
2018-06-18T21:53:45.412Z,10.87
2018-06-18T21:56:13.652Z,10.77
2018-06-18T21:58:41.909Z,11.23
2018-06-18T22:01:10.281Z,11.93
2018-06-18T22:03:38.548Z,13.30
2018-06-18T22:06:06.860Z,12.17
2018-06-18T22:08:35.192Z,12.90
2018-06-18T22:11:03.497Z,12.10
2018-06-18T22:13:31.748Z,13.00
2018-06-18T22:16:00.021Z,11.80
2018-06-18T22:18:28.023Z,12.47
2018-06-18T22:20:56.288Z,13.10
2018-06-18T22:23:24.535Z,11.83
2018-06-18T22:25:52.815Z,11.67
2018-06-18T22:28:27.076Z,10.93
2018-06-18T22:30:55.533Z,9.20
2018-06-18T22:33:23.816Z,10.50
2018-06-18T22:35:52.051Z,10.30
2018-06-18T22:38:20.339Z,10.93
2018-06-18T22:40:48.601Z,12.23
2018-06-18T22:43:16.914Z,9.53
2018-06-18T22:45:45.203Z,10.20
2018-06-18T22:48:13.457Z,10.20
2018-06-18T22:50:41.755Z,9.53
2018-06-18T22:53:10.047Z,9.77
2018-06-18T22:55:38.303Z,9.93
2018-06-18T22:58:06.560Z,8.00
2018-06-18T23:00:34.869Z,9.07
2018-06-18T23:03:03.154Z,7.50
2018-06-18T23:05:31.444Z,6.40
2018-06-18T23:07:59.701Z,7.00
2018-06-18T23:10:27.994Z,6.73
2018-06-18T23:12:56.320Z,6.87
2018-06-18T23:15:24.560Z,6.50
2018-06-18T23:17:52.847Z,5.47
2018-06-18T23:20:21.135Z,4.93
2018-06-18T23:22:49.431Z,4.97
2018-06-18T23:25:17.709Z,5.40
2018-06-18T23:27:46.424Z,4.40
2018-06-18T23:30:14.458Z,5.03
2018-06-18T23:32:42.744Z,4.90
2018-06-18T23:35:11.015Z,4.40
2018-06-18T23:37:39.269Z,4.60
2018-06-18T23:40:07.537Z,5.00
2018-06-18T23:42:35.787Z,5.30
2018-06-18T23:45:04.082Z,5.13
2018-06-18T23:47:32.369Z,4.20
2018-06-18T23:50:00.646Z,5.00
2018-06-18T23:52:29.150Z,5.03
2018-06-18T23:54:57.480Z,5.23
2018-06-18T23:57:25.724Z,4.83
2018-06-18T23:59:54.127Z,4.80
